createdAt,value
2017-11-14T16:43:49.967Z,3.90
2017-11-14T16:46:17.513Z,3.80
2017-11-14T16:48:45.874Z,3.70
2017-11-14T16:51:13.943Z,3.70
2017-11-14T16:53:42.125Z,3.60
2017-11-14T16:56:10.733Z,3.60
2017-11-14T16:58:39.927Z,3.70
2017-11-14T17:01:11.687Z,3.70
2017-11-14T17:03:39.863Z,3.60
2017-11-14T17:06:07.912Z,3.60
2017-11-14T17:08:38.035Z,3.40
2017-11-14T17:11:08.186Z,3.40
2017-11-14T17:13:38.836Z,3.40
2017-11-14T17:16:07.876Z,3.40
2017-11-14T17:18:37.506Z,3.50
2017-11-14T17:21:13.520Z,3.30
2017-11-14T17:23:42.672Z,3.20
2017-11-14T17:26:10.611Z,3.20
2017-11-14T17:28:39.417Z,3.20
2017-11-14T17:31:08.428Z,3.00
2017-11-14T17:33:36.811Z,3.00
2017-11-14T17:36:05.733Z,2.90
2017-11-14T17:38:35.121Z,3.10
2017-11-14T17:41:07.444Z,3.00
2017-11-14T17:43:36.780Z,2.90
2017-11-14T17:46:04.731Z,3.00
2017-11-14T17:48:38.426Z,2.90
2017-11-14T17:51:08.104Z,3.00
2017-11-14T17:53:38.682Z,2.90
2017-11-14T17:56:10.080Z,2.80
2017-11-14T17:58:38.947Z,2.70
2017-11-14T18:01:07.537Z,2.70
2017-11-14T18:03:36.555Z,2.70
2017-11-14T18:06:05.610Z,2.60
2017-11-14T18:08:36.417Z,2.60
2017-11-14T18:11:05.704Z,2.60
2017-11-14T18:13:35.488Z,2.60
2017-11-14T18:16:06.837Z,2.70
2017-11-14T18:18:37.881Z,2.70
2017-11-14T18:21:07.572Z,2.60
2017-11-14T18:23:36.671Z,2.70
2017-11-14T18:26:06.966Z,2.60
2017-11-14T18:28:39.763Z,2.60
2017-11-14T18:31:08.792Z,2.40
2017-11-14T18:33:37.835Z,2.40
2017-11-14T18:36:08.127Z,2.40
2017-11-14T18:38:36.497Z,2.30
2017-11-14T18:41:07.649Z,2.30
2017-11-14T18:43:41.024Z,2.30
2017-11-14T18:46:10.302Z,2.30
2017-11-14T18:48:40.120Z,2.30
2017-11-14T18:51:09.549Z,2.30
2017-11-14T18:53:37.725Z,2.30
2017-11-14T18:56:07.664Z,2.20
2017-11-14T18:58:37.907Z,2.20
2017-11-14T19:01:05.938Z,2.20
2017-11-14T19:03:34.041Z,2.20
2017-11-14T19:06:02.679Z,2.30
2017-11-14T19:08:31.303Z,2.30
2017-11-14T19:10:59.077Z,2.20
2017-11-14T19:13:29.496Z,2.30
2017-11-14T19:16:01.488Z,2.20
2017-11-14T19:18:29.310Z,2.10
2017-11-14T19:20:56.883Z,2.10
2017-11-14T19:23:26.569Z,2.00
2017-11-14T19:25:55.611Z,2.00
2017-11-14T19:28:24.963Z,1.90
2017-11-14T19:30:52.754Z,2.00
2017-11-14T19:33:22.155Z,1.90
2017-11-14T19:35:51.991Z,1.90
2017-11-14T19:38:20.117Z,1.90
2017-11-14T19:40:49.080Z,1.90
2017-11-14T19:43:18.013Z,1.90
2017-11-14T19:45:47.290Z,1.70
2017-11-14T19:48:14.833Z,1.70
2017-11-14T19:50:42.462Z,1.70
2017-11-14T19:53:10.328Z,1.70
2017-11-14T19:55:40.119Z,1.70
2017-11-14T19:58:08.385Z,1.70
2017-11-14T20:00:37.669Z,1.60
2017-11-14T20:03:06.106Z,1.60
2017-11-14T20:05:35.304Z,1.60
2017-11-14T20:08:03.553Z,1.70
2017-11-14T20:10:36.073Z,1.80
2017-11-14T20:13:04.934Z,1.80
2017-11-14T20:15:34.822Z,1.80
2017-11-14T20:18:05.453Z,1.70
2017-11-14T20:20:33.633Z,1.70
2017-11-14T20:23:01.749Z,1.60
2017-11-14T20:25:30.224Z,1.50
2017-11-14T20:27:57.801Z,1.50
2017-11-14T20:30:26.128Z,1.60
2017-11-14T20:32:53.672Z,1.50
2017-11-14T20:35:21.249Z,1.40
2017-11-14T20:37:48.786Z,1.50
2017-11-14T20:40:17.030Z,1.40
2017-11-14T20:42:44.710Z,1.50
2017-11-14T20:45:12.385Z,1.40
2017-11-14T20:47:40.066Z,1.40
2017-11-14T20:50:08.402Z,1.40
2017-11-14T20:52:36.021Z,1.40
2017-11-14T20:55:05.056Z,1.50
2017-11-14T20:57:35.918Z,1.50
2017-11-14T21:00:06.132Z,1.60
2017-11-14T21:02:35.416Z,1.60
2017-11-14T21:05:04.459Z,1.60
2017-11-14T21:07:33.900Z,1.60
2017-11-14T21:10:03.197Z,1.50
2017-11-14T21:12:31.201Z,1.50
2017-11-14T21:14:58.838Z,1.40
2017-11-14T21:17:28.748Z,1.40
2017-11-14T21:19:56.454Z,1.40
2017-11-14T21:22:24.793Z,1.20
2017-11-14T21:24:52.371Z,1.20
2017-11-14T21:27:19.928Z,1.30
2017-11-14T21:29:48.484Z,1.20
2017-11-14T21:32:16.085Z,1.20
2017-11-14T21:34:45.203Z,1.10
2017-11-14T21:37:13.510Z,1.20
2017-11-14T21:39:42.788Z,1.10
2017-11-14T21:42:12.505Z,1.10
2017-11-14T21:44:40.437Z,1.20
2017-11-14T21:47:08.129Z,1.20
2017-11-14T21:49:36.698Z,1.20
2017-11-14T21:52:04.454Z,1.10
2017-11-14T21:54:32.580Z,1.10
2017-11-14T21:57:00.444Z,1.10
2017-11-14T21:59:28.960Z,1.20
2017-11-14T22:01:56.492Z,1.20
2017-11-14T22:04:25.756Z,1.20
2017-11-14T22:06:53.286Z,1.10
2017-11-14T22:09:21.622Z,1.10
2017-11-14T22:11:49.152Z,1.10
2017-11-14T22:14:17.490Z,1.00
2017-11-14T22:16:45.022Z,1.00
2017-11-14T22:19:13.317Z,1.00
2017-11-14T22:21:40.949Z,1.00
2017-11-14T22:24:08.637Z,1.00
2017-11-14T22:26:36.392Z,0.90
2017-11-14T22:29:05.008Z,1.10
2017-11-14T22:31:33.621Z,1.00
2017-11-14T22:34:01.369Z,1.00
2017-11-14T22:36:29.760Z,1.10
2017-11-14T22:38:58.818Z,1.10
2017-11-14T22:41:26.505Z,1.10
2017-11-14T22:43:54.055Z,1.00
2017-11-14T22:46:22.396Z,0.90
2017-11-14T22:48:49.927Z,0.80
2017-11-14T22:51:18.258Z,0.70
2017-11-14T22:53:46.121Z,0.70
2017-11-14T22:56:13.694Z,0.80
2017-11-14T22:58:42.125Z,0.80
2017-11-14T23:01:09.818Z,0.70
2017-11-14T23:03:39.190Z,0.80
2017-11-14T23:06:08.011Z,0.80
2017-11-14T23:08:36.132Z,0.70
2017-11-14T23:11:06.351Z,0.80
2017-11-14T23:13:36.618Z,0.70
2017-11-14T23:16:04.678Z,0.70
2017-11-14T23:18:38.782Z,0.70
2017-11-14T23:21:08.312Z,0.70
2017-11-14T23:23:38.809Z,0.70
2017-11-14T23:26:11.075Z,0.70
2017-11-14T23:28:40.758Z,0.70
2017-11-14T23:31:09.252Z,0.60
2017-11-14T23:33:40.225Z,0.60
2017-11-14T23:36:09.215Z,0.60
2017-11-14T23:38:37.295Z,0.70
2017-11-14T23:41:08.078Z,0.60
2017-11-14T23:43:38.117Z,0.70
2017-11-14T23:46:08.953Z,0.70
2017-11-14T23:48:38.379Z,0.70
2017-11-14T23:51:08.467Z,0.70
2017-11-14T23:53:50.528Z,0.70
2017-11-14T23:56:18.820Z,0.70
2017-11-14T23:58:47.171Z,0.60
